sensor_id;sensor_type;location;lat;lon;timestamp;P1;durP1;ratioP1;P2;durP2;ratioP2
7835;SDS011;3963;42.658;23.298;2023-01-19T00:01:04;21.93;;;4.43;;
7835;SDS011;3963;42.658;23.298;2023-01-19T00:03:31;17.30;;;4.00;;
7835;SDS011;3963;42.658;23.298;2023-01-19T00:05:58;18.83;;;3.80;;
7835;SDS011;3963;42.658;23.298;2023-01-19T00:08:30;17.40;;;3.77;;
7835;SDS011;3963;42.658;23.298;2023-01-19T00:10:56;21.50;;;3.53;;
7835;SDS011;3963;42.658;23.298;2023-01-19T00:13:23;24.07;;;3.47;;
7835;SDS011;3963;42.658;23.298;2023-01-19T00:15:51;19.07;;;4.07;;
7835;SDS011;3963;42.658;23.298;2023-01-19T00:18:19;18.90;;;3.30;;
7835;SDS011;3963;42.658;23.298;2023-01-19T00:20:45;27.03;;;3.80;;
7835;SDS011;3963;42.658;23.298;2023-01-19T00:23:13;21.23;;;4.07;;
7835;SDS011;3963;42.658;23.298;2023-01-19T00:25:41;19.30;;;3.27;;
7835;SDS011;3963;42.658;23.298;2023-01-19T00:28:08;14.80;;;4.30;;
7835;SDS011;3963;42.658;23.298;2023-01-19T00:30:35;22.23;;;3.80;;
7835;SDS011;3963;42.658;23.298;2023-01-19T00:33:03;17.33;;;3.47;;
7835;SDS011;3963;42.658;23.298;2023-01-19T00:35:30;26.90;;;4.37;;
7835;SDS011;3963;42.658;23.298;2023-01-19T00:37:57;20.60;;;3.30;;
7835;SDS011;3963;42.658;23.298;2023-01-19T00:40:26;21.90;;;3.70;;
7835;SDS011;3963;42.658;23.298;2023-01-19T00:42:53;20.23;;;4.23;;
7835;SDS011;3963;42.658;23.298;2023-01-19T00:45:21;19.97;;;3.40;;
7835;SDS011;3963;42.658;23.298;2023-01-19T00:47:49;25.03;;;3.57;;
7835;SDS011;3963;42.658;23.298;2023-01-19T00:50:20;31.77;;;4.27;;
7835;SDS011;3963;42.658;23.298;2023-01-19T00:52:47;22.60;;;3.87;;
7835;SDS011;3963;42.658;23.298;2023-01-19T00:55:14;18.67;;;3.63;;
7835;SDS011;3963;42.658;23.298;2023-01-19T00:57:41;22.33;;;3.53;;
7835;SDS011;3963;42.658;23.298;2023-01-19T01:00:09;22.73;;;5.97;;
7835;SDS011;3963;42.658;23.298;2023-01-19T01:02:38;29.37;;;4.53;;
7835;SDS011;3963;42.658;23.298;2023-01-19T01:05:05;21.17;;;4.00;;
7835;SDS011;3963;42.658;23.298;2023-01-19T01:07:35;20.40;;;6.40;;
7835;SDS011;3963;42.658;23.298;2023-01-19T01:10:06;25.70;;;3.50;;
7835;SDS011;3963;42.658;23.298;2023-01-19T01:12:33;21.80;;;4.27;;
7835;SDS011;3963;42.658;23.298;2023-01-19T01:15:00;16.87;;;2.83;;
7835;SDS011;3963;42.658;23.298;2023-01-19T01:17:27;11.73;;;3.10;;
7835;SDS011;3963;42.658;23.298;2023-01-19T01:19:54;14.30;;;3.63;;
7835;SDS011;3963;42.658;23.298;2023-01-19T01:22:20;16.70;;;3.97;;
7835;SDS011;3963;42.658;23.298;2023-01-19T01:24:48;21.17;;;4.10;;
7835;SDS011;3963;42.658;23.298;2023-01-19T01:27:15;22.53;;;3.83;;
7835;SDS011;3963;42.658;23.298;2023-01-19T01:29:42;11.80;;;3.20;;
7835;SDS011;3963;42.658;23.298;2023-01-19T01:32:11;22.77;;;3.70;;
7835;SDS011;3963;42.658;23.298;2023-01-19T01:34:38;21.20;;;2.80;;
7835;SDS011;3963;42.658;23.298;2023-01-19T01:37:05;17.50;;;4.50;;
7835;SDS011;3963;42.658;23.298;2023-01-19T01:39:33;17.13;;;4.13;;
7835;SDS011;3963;42.658;23.298;2023-01-19T01:42:01;19.43;;;4.13;;
7835;SDS011;3963;42.658;23.298;2023-01-19T01:44:46;21.20;;;2.97;;
7835;SDS011;3963;42.658;23.298;2023-01-19T01:47:19;14.30;;;2.53;;
7835;SDS011;3963;42.658;23.298;2023-01-19T01:49:52;17.87;;;3.23;;
7835;SDS011;3963;42.658;23.298;2023-01-19T01:52:22;19.00;;;4.47;;
7835;SDS011;3963;42.658;23.298;2023-01-19T01:54:53;8.40;;;3.00;;
7835;SDS011;3963;42.658;23.298;2023-01-19T01:57:22;20.70;;;4.57;;
7835;SDS011;3963;42.658;23.298;2023-01-19T01:59:52;15.67;;;3.70;;
7835;SDS011;3963;42.658;23.298;2023-01-19T02:02:22;14.27;;;2.60;;
7835;SDS011;3963;42.658;23.298;2023-01-19T02:05:09;15.50;;;3.50;;
7835;SDS011;3963;42.658;23.298;2023-01-19T02:07:40;18.17;;;2.97;;
7835;SDS011;3963;42.658;23.298;2023-01-19T02:10:28;18.10;;;3.33;;
7835;SDS011;3963;42.658;23.298;2023-01-19T02:13:14;14.73;;;3.27;;
7835;SDS011;3963;42.658;23.298;2023-01-19T02:15:47;19.93;;;3.33;;
7835;SDS011;3963;42.658;23.298;2023-01-19T02:18:15;15.63;;;4.00;;
7835;SDS011;3963;42.658;23.298;2023-01-19T02:20:44;13.07;;;2.43;;
7835;SDS011;3963;42.658;23.298;2023-01-19T02:23:18;13.47;;;4.00;;
7835;SDS011;3963;42.658;23.298;2023-01-19T02:25:55;22.50;;;3.00;;
7835;SDS011;3963;42.658;23.298;2023-01-19T02:28:24;16.33;;;3.27;;
7835;SDS011;3963;42.658;23.298;2023-01-19T02:30:52;18.70;;;2.30;;
7835;SDS011;3963;42.658;23.298;2023-01-19T02:33:19;18.40;;;2.73;;
7835;SDS011;3963;42.658;23.298;2023-01-19T02:35:46;15.07;;;2.73;;
7835;SDS011;3963;42.658;23.298;2023-01-19T02:38:15;13.37;;;2.47;;
7835;SDS011;3963;42.658;23.298;2023-01-19T02:40:46;20.27;;;2.93;;
7835;SDS011;3963;42.658;23.298;2023-01-19T02:43:14;19.43;;;3.30;;
7835;SDS011;3963;42.658;23.298;2023-01-19T02:45:44;15.37;;;2.40;;
7835;SDS011;3963;42.658;23.298;2023-01-19T02:48:12;19.13;;;3.53;;
7835;SDS011;3963;42.658;23.298;2023-01-19T02:50:41;21.50;;;3.10;;
7835;SDS011;3963;42.658;23.298;2023-01-19T02:56:08;20.60;;;3.07;;
7835;SDS011;3963;42.658;23.298;2023-01-19T02:58:57;19.00;;;2.63;;
7835;SDS011;3963;42.658;23.298;2023-01-19T03:01:32;21.40;;;3.50;;
7835;SDS011;3963;42.658;23.298;2023-01-19T03:04:10;11.47;;;2.60;;
7835;SDS011;3963;42.658;23.298;2023-01-19T03:06:44;20.17;;;3.47;;
7835;SDS011;3963;42.658;23.298;2023-01-19T03:09:17;21.37;;;3.43;;
7835;SDS011;3963;42.658;23.298;2023-01-19T03:11:58;23.00;;;3.00;;
7835;SDS011;3963;42.658;23.298;2023-01-19T03:14:30;25.87;;;3.23;;
7835;SDS011;3963;42.658;23.298;2023-01-19T03:17:04;13.90;;;2.70;;
7835;SDS011;3963;42.658;23.298;2023-01-19T03:19:35;26.27;;;4.10;;
7835;SDS011;3963;42.658;23.298;2023-01-19T03:22:06;13.73;;;2.80;;
7835;SDS011;3963;42.658;23.298;2023-01-19T03:24:36;21.10;;;3.00;;
7835;SDS011;3963;42.658;23.298;2023-01-19T03:27:09;25.90;;;2.83;;
7835;SDS011;3963;42.658;23.298;2023-01-19T03:29:40;13.03;;;2.90;;
7835;SDS011;3963;42.658;23.298;2023-01-19T03:32:12;18.87;;;3.47;;
7835;SDS011;3963;42.658;23.298;2023-01-19T03:34:43;10.83;;;2.67;;
7835;SDS011;3963;42.658;23.298;2023-01-19T03:37:13;13.80;;;3.23;;
7835;SDS011;3963;42.658;23.298;2023-01-19T03:39:41;12.30;;;2.43;;
7835;SDS011;3963;42.658;23.298;2023-01-19T03:42:10;24.83;;;3.73;;
7835;SDS011;3963;42.658;23.298;2023-01-19T03:44:41;14.37;;;3.00;;
7835;SDS011;3963;42.658;23.298;2023-01-19T03:47:09;14.27;;;3.33;;
7835;SDS011;3963;42.658;23.298;2023-01-19T03:49:39;21.87;;;4.63;;
7835;SDS011;3963;42.658;23.298;2023-01-19T03:52:08;5.93;;;2.33;;
7835;SDS011;3963;42.658;23.298;2023-01-19T03:54:36;20.90;;;2.53;;
7835;SDS011;3963;42.658;23.298;2023-01-19T03:57:05;27.37;;;4.07;;
7835;SDS011;3963;42.658;23.298;2023-01-19T03:59:33;28.27;;;4.13;;
7835;SDS011;3963;42.658;23.298;2023-01-19T04:01:59;26.70;;;3.83;;
7835;SDS011;3963;42.658;23.298;2023-01-19T04:04:26;20.30;;;4.10;;
7835;SDS011;3963;42.658;23.298;2023-01-19T04:06:53;15.37;;;3.67;;
7835;SDS011;3963;42.658;23.298;2023-01-19T04:09:20;26.50;;;4.57;;
7835;SDS011;3963;42.658;23.298;2023-01-19T04:11:46;29.43;;;4.30;;
7835;SDS011;3963;42.658;23.298;2023-01-19T04:14:13;23.63;;;4.17;;
7835;SDS011;3963;42.658;23.298;2023-01-19T04:16:41;22.00;;;4.10;;
7835;SDS011;3963;42.658;23.298;2023-01-19T04:19:08;23.57;;;4.70;;
7835;SDS011;3963;42.658;23.298;2023-01-19T04:21:35;24.37;;;4.40;;
7835;SDS011;3963;42.658;23.298;2023-01-19T04:24:02;24.77;;;4.67;;
7835;SDS011;3963;42.658;23.298;2023-01-19T04:26:29;29.90;;;4.70;;
7835;SDS011;3963;42.658;23.298;2023-01-19T04:28:56;23.33;;;3.67;;
7835;SDS011;3963;42.658;23.298;2023-01-19T04:31:23;19.80;;;5.40;;
7835;SDS011;3963;42.658;23.298;2023-01-19T04:33:51;24.90;;;5.23;;
7835;SDS011;3963;42.658;23.298;2023-01-19T04:36:18;27.83;;;5.60;;
7835;SDS011;3963;42.658;23.298;2023-01-19T04:38:45;23.07;;;4.87;;
7835;SDS011;3963;42.658;23.298;2023-01-19T04:41:12;25.90;;;4.77;;
7835;SDS011;3963;42.658;23.298;2023-01-19T04:43:39;29.53;;;4.73;;
7835;SDS011;3963;42.658;23.298;2023-01-19T04:46:06;24.40;;;5.83;;
7835;SDS011;3963;42.658;23.298;2023-01-19T04:48:33;34.83;;;4.97;;
7835;SDS011;3963;42.658;23.298;2023-01-19T04:51:01;26.43;;;4.33;;
7835;SDS011;3963;42.658;23.298;2023-01-19T04:53:28;26.53;;;4.77;;
7835;SDS011;3963;42.658;23.298;2023-01-19T04:55:55;30.07;;;5.37;;
7835;SDS011;3963;42.658;23.298;2023-01-19T04:58:23;37.63;;;5.33;;
7835;SDS011;3963;42.658;23.298;2023-01-19T05:00:50;25.93;;;5.40;;
7835;SDS011;3963;42.658;23.298;2023-01-19T05:03:17;33.33;;;5.33;;
7835;SDS011;3963;42.658;23.298;2023-01-19T05:05:44;26.73;;;6.13;;
7835;SDS011;3963;42.658;23.298;2023-01-19T05:08:12;38.53;;;4.73;;
7835;SDS011;3963;42.658;23.298;2023-01-19T05:10:39;26.13;;;5.73;;
7835;SDS011;3963;42.658;23.298;2023-01-19T05:13:06;30.37;;;5.33;;
7835;SDS011;3963;42.658;23.298;2023-01-19T05:15:33;25.33;;;4.43;;
7835;SDS011;3963;42.658;23.298;2023-01-19T05:18:00;22.67;;;4.83;;
7835;SDS011;3963;42.658;23.298;2023-01-19T05:20:26;29.10;;;4.73;;
7835;SDS011;3963;42.658;23.298;2023-01-19T05:22:53;32.07;;;6.30;;
7835;SDS011;3963;42.658;23.298;2023-01-19T05:25:21;23.37;;;3.80;;
7835;SDS011;3963;42.658;23.298;2023-01-19T05:27:48;23.83;;;4.47;;
7835;SDS011;3963;42.658;23.298;2023-01-19T05:30:15;29.47;;;5.10;;
7835;SDS011;3963;42.658;23.298;2023-01-19T05:32:43;40.80;;;5.53;;
7835;SDS011;3963;42.658;23.298;2023-01-19T05:35:10;27.87;;;5.00;;
7835;SDS011;3963;42.658;23.298;2023-01-19T05:37:37;27.13;;;5.17;;
7835;SDS011;3963;42.658;23.298;2023-01-19T05:40:05;32.10;;;4.03;;
7835;SDS011;3963;42.658;23.298;2023-01-19T05:42:35;21.77;;;4.67;;
7835;SDS011;3963;42.658;23.298;2023-01-19T05:45:02;28.65;;;5.90;;
7835;SDS011;3963;42.658;23.298;2023-01-19T05:47:30;23.53;;;4.73;;
7835;SDS011;3963;42.658;23.298;2023-01-19T05:49:57;29.57;;;5.60;;
7835;SDS011;3963;42.658;23.298;2023-01-19T05:52:24;26.20;;;5.80;;
7835;SDS011;3963;42.658;23.298;2023-01-19T05:54:50;29.63;;;4.97;;
7835;SDS011;3963;42.658;23.298;2023-01-19T05:57:19;31.23;;;6.67;;
7835;SDS011;3963;42.658;23.298;2023-01-19T05:59:47;23.90;;;5.30;;
7835;SDS011;3963;42.658;23.298;2023-01-19T06:02:14;17.27;;;4.70;;
7835;SDS011;3963;42.658;23.298;2023-01-19T06:04:41;25.77;;;4.93;;
7835;SDS011;3963;42.658;23.298;2023-01-19T06:07:08;21.00;;;4.73;;
7835;SDS011;3963;42.658;23.298;2023-01-19T06:09:35;27.33;;;5.90;;
7835;SDS011;3963;42.658;23.298;2023-01-19T06:12:02;24.93;;;6.27;;
7835;SDS011;3963;42.658;23.298;2023-01-19T06:14:29;41.00;;;6.33;;
7835;SDS011;3963;42.658;23.298;2023-01-19T06:16:57;38.00;;;6.10;;
7835;SDS011;3963;42.658;23.298;2023-01-19T06:19:24;25.83;;;5.13;;
7835;SDS011;3963;42.658;23.298;2023-01-19T06:21:51;26.90;;;5.40;;
7835;SDS011;3963;42.658;23.298;2023-01-19T06:24:18;30.53;;;5.80;;
7835;SDS011;3963;42.658;23.298;2023-01-19T06:26:45;22.43;;;5.07;;
7835;SDS011;3963;42.658;23.298;2023-01-19T06:29:12;30.10;;;5.50;;
7835;SDS011;3963;42.658;23.298;2023-01-19T06:31:39;25.17;;;5.30;;
7835;SDS011;3963;42.658;23.298;2023-01-19T06:34:08;28.97;;;5.77;;
7835;SDS011;3963;42.658;23.298;2023-01-19T06:36:37;32.10;;;5.00;;
7835;SDS011;3963;42.658;23.298;2023-01-19T06:39:04;31.10;;;5.77;;
7835;SDS011;3963;42.658;23.298;2023-01-19T06:41:31;28.10;;;5.53;;
7835;SDS011;3963;42.658;23.298;2023-01-19T06:43:58;29.00;;;5.10;;
7835;SDS011;3963;42.658;23.298;2023-01-19T06:46:24;24.60;;;5.03;;
7835;SDS011;3963;42.658;23.298;2023-01-19T06:51:19;33.00;;;5.60;;
7835;SDS011;3963;42.658;23.298;2023-01-19T06:53:46;36.47;;;6.43;;
7835;SDS011;3963;42.658;23.298;2023-01-19T06:56:13;40.20;;;8.03;;
7835;SDS011;3963;42.658;23.298;2023-01-19T06:58:40;21.63;;;4.80;;
7835;SDS011;3963;42.658;23.298;2023-01-19T07:01:07;25.23;;;5.53;;
7835;SDS011;3963;42.658;23.298;2023-01-19T07:03:35;30.40;;;6.17;;
7835;SDS011;3963;42.658;23.298;2023-01-19T07:06:03;24.50;;;5.50;;
7835;SDS011;3963;42.658;23.298;2023-01-19T07:08:33;28.23;;;5.67;;
7835;SDS011;3963;42.658;23.298;2023-01-19T07:11:04;37.73;;;6.13;;
7835;SDS011;3963;42.658;23.298;2023-01-19T07:13:33;27.83;;;5.27;;
7835;SDS011;3963;42.658;23.298;2023-01-19T07:16:02;30.67;;;5.10;;
7835;SDS011;3963;42.658;23.298;2023-01-19T07:18:30;25.10;;;6.27;;
7835;SDS011;3963;42.658;23.298;2023-01-19T07:20:57;52.00;;;6.90;;
7835;SDS011;3963;42.658;23.298;2023-01-19T07:23:24;24.53;;;5.60;;
7835;SDS011;3963;42.658;23.298;2023-01-19T07:25:55;30.37;;;6.37;;
7835;SDS011;3963;42.658;23.298;2023-01-19T07:28:22;25.47;;;5.27;;
7835;SDS011;3963;42.658;23.298;2023-01-19T07:30:49;36.93;;;5.83;;
7835;SDS011;3963;42.658;23.298;2023-01-19T07:33:16;31.57;;;4.93;;
7835;SDS011;3963;42.658;23.298;2023-01-19T07:35:44;30.80;;;5.30;;
7835;SDS011;3963;42.658;23.298;2023-01-19T07:38:11;28.87;;;7.30;;
7835;SDS011;3963;42.658;23.298;2023-01-19T07:40:38;31.47;;;5.60;;
7835;SDS011;3963;42.658;23.298;2023-01-19T07:43:06;28.60;;;5.37;;
7835;SDS011;3963;42.658;23.298;2023-01-19T07:45:33;27.20;;;5.23;;
7835;SDS011;3963;42.658;23.298;2023-01-19T07:48:00;35.17;;;5.40;;
7835;SDS011;3963;42.658;23.298;2023-01-19T07:50:27;37.10;;;8.17;;
7835;SDS011;3963;42.658;23.298;2023-01-19T07:52:54;31.30;;;5.43;;
7835;SDS011;3963;42.658;23.298;2023-01-19T07:55:22;36.37;;;5.90;;
7835;SDS011;3963;42.658;23.298;2023-01-19T07:57:49;26.03;;;4.70;;
7835;SDS011;3963;42.658;23.298;2023-01-19T08:00:18;18.10;;;4.57;;
7835;SDS011;3963;42.658;23.298;2023-01-19T08:02:49;29.77;;;5.80;;
7835;SDS011;3963;42.658;23.298;2023-01-19T08:05:16;30.43;;;5.47;;
7835;SDS011;3963;42.658;23.298;2023-01-19T08:07:43;27.87;;;6.90;;
7835;SDS011;3963;42.658;23.298;2023-01-19T08:10:10;28.80;;;7.23;;
7835;SDS011;3963;42.658;23.298;2023-01-19T08:12:37;31.67;;;7.63;;
7835;SDS011;3963;42.658;23.298;2023-01-19T08:15:06;31.23;;;5.93;;
7835;SDS011;3963;42.658;23.298;2023-01-19T08:17:36;32.10;;;5.43;;
7835;SDS011;3963;42.658;23.298;2023-01-19T08:20:03;39.27;;;7.63;;
7835;SDS011;3963;42.658;23.298;2023-01-19T08:22:33;36.43;;;6.07;;
7835;SDS011;3963;42.658;23.298;2023-01-19T08:25:00;27.07;;;5.60;;
7835;SDS011;3963;42.658;23.298;2023-01-19T08:27:26;31.00;;;5.23;;
7835;SDS011;3963;42.658;23.298;2023-01-19T08:29:54;26.57;;;6.33;;
7835;SDS011;3963;42.658;23.298;2023-01-19T08:32:23;38.60;;;6.70;;
7835;SDS011;3963;42.658;23.298;2023-01-19T08:34:51;28.33;;;7.07;;
7835;SDS011;3963;42.658;23.298;2023-01-19T08:37:18;25.50;;;5.63;;
7835;SDS011;3963;42.658;23.298;2023-01-19T08:39:44;36.53;;;6.17;;
7835;SDS011;3963;42.658;23.298;2023-01-19T08:42:11;25.57;;;5.27;;
7835;SDS011;3963;42.658;23.298;2023-01-19T08:44:38;34.47;;;6.63;;
7835;SDS011;3963;42.658;23.298;2023-01-19T08:47:04;33.30;;;10.53;;
7835;SDS011;3963;42.658;23.298;2023-01-19T08:49:32;31.30;;;10.20;;
7835;SDS011;3963;42.658;23.298;2023-01-19T08:52:01;25.07;;;5.13;;
7835;SDS011;3963;42.658;23.298;2023-01-19T08:54:27;29.77;;;6.27;;
7835;SDS011;3963;42.658;23.298;2023-01-19T08:56:54;23.83;;;4.97;;
7835;SDS011;3963;42.658;23.298;2023-01-19T08:59:21;30.17;;;5.67;;
7835;SDS011;3963;42.658;23.298;2023-01-19T09:01:48;32.50;;;6.77;;
7835;SDS011;3963;42.658;23.298;2023-01-19T09:04:15;26.60;;;4.90;;
7835;SDS011;3963;42.658;23.298;2023-01-19T09:06:42;24.47;;;6.03;;
7835;SDS011;3963;42.658;23.298;2023-01-19T09:09:10;20.43;;;6.13;;
7835;SDS011;3963;42.658;23.298;2023-01-19T09:11:37;25.13;;;4.70;;
7835;SDS011;3963;42.658;23.298;2023-01-19T09:14:03;32.60;;;6.43;;
7835;SDS011;3963;42.658;23.298;2023-01-19T09:16:30;20.60;;;6.03;;
7835;SDS011;3963;42.658;23.298;2023-01-19T09:18:57;28.10;;;6.43;;
7835;SDS011;3963;42.658;23.298;2023-01-19T09:21:24;30.53;;;4.97;;
7835;SDS011;3963;42.658;23.298;2023-01-19T09:23:51;23.73;;;4.80;;
7835;SDS011;3963;42.658;23.298;2023-01-19T09:26:20;20.07;;;4.70;;
7835;SDS011;3963;42.658;23.298;2023-01-19T09:28:47;25.97;;;5.43;;
7835;SDS011;3963;42.658;23.298;2023-01-19T09:31:14;25.37;;;4.23;;
7835;SDS011;3963;42.658;23.298;2023-01-19T09:33:41;13.57;;;3.40;;
7835;SDS011;3963;42.658;23.298;2023-01-19T09:36:08;23.83;;;4.13;;
7835;SDS011;3963;42.658;23.298;2023-01-19T09:38:35;19.37;;;4.50;;
7835;SDS011;3963;42.658;23.298;2023-01-19T09:41:02;22.73;;;4.07;;
7835;SDS011;3963;42.658;23.298;2023-01-19T09:43:41;17.77;;;3.73;;
7835;SDS011;3963;42.658;23.298;2023-01-19T09:46:13;24.07;;;4.30;;
7835;SDS011;3963;42.658;23.298;2023-01-19T09:48:45;18.27;;;4.63;;
7835;SDS011;3963;42.658;23.298;2023-01-19T09:51:14;21.97;;;4.13;;
7835;SDS011;3963;42.658;23.298;2023-01-19T09:53:50;18.27;;;4.00;;
7835;SDS011;3963;42.658;23.298;2023-01-19T09:56:20;20.83;;;3.73;;
7835;SDS011;3963;42.658;23.298;2023-01-19T09:58:50;27.30;;;5.90;;
7835;SDS011;3963;42.658;23.298;2023-01-19T10:01:21;26.17;;;6.60;;
7835;SDS011;3963;42.658;23.298;2023-01-19T10:04:06;21.77;;;4.20;;
7835;SDS011;3963;42.658;23.298;2023-01-19T10:06:42;18.13;;;4.33;;
7835;SDS011;3963;42.658;23.298;2023-01-19T10:09:10;19.73;;;3.83;;
7835;SDS011;3963;42.658;23.298;2023-01-19T10:11:47;30.13;;;3.73;;
7835;SDS011;3963;42.658;23.298;2023-01-19T10:14:19;17.47;;;3.87;;
7835;SDS011;3963;42.658;23.298;2023-01-19T10:16:55;15.07;;;3.70;;
7835;SDS011;3963;42.658;23.298;2023-01-19T10:19:26;15.37;;;3.40;;
7835;SDS011;3963;42.658;23.298;2023-01-19T10:21:57;16.50;;;3.23;;
7835;SDS011;3963;42.658;23.298;2023-01-19T10:24:31;20.50;;;3.50;;
7835;SDS011;3963;42.658;23.298;2023-01-19T10:27:04;13.20;;;3.63;;
7835;SDS011;3963;42.658;23.298;2023-01-19T10:29:43;16.97;;;4.00;;
7835;SDS011;3963;42.658;23.298;2023-01-19T10:32:12;14.50;;;3.17;;
7835;SDS011;3963;42.658;23.298;2023-01-19T10:34:41;15.53;;;3.97;;
7835;SDS011;3963;42.658;23.298;2023-01-19T10:37:12;15.57;;;3.53;;
7835;SDS011;3963;42.658;23.298;2023-01-19T10:39:50;16.47;;;3.33;;
7835;SDS011;3963;42.658;23.298;2023-01-19T10:42:19;20.67;;;3.07;;
7835;SDS011;3963;42.658;23.298;2023-01-19T10:44:47;16.77;;;4.17;;
7835;SDS011;3963;42.658;23.298;2023-01-19T10:47:15;10.23;;;3.40;;
7835;SDS011;3963;42.658;23.298;2023-01-19T10:49:43;10.63;;;2.57;;
7835;SDS011;3963;42.658;23.298;2023-01-19T10:52:18;20.87;;;3.77;;
7835;SDS011;3963;42.658;23.298;2023-01-19T10:54:49;16.20;;;5.20;;
7835;SDS011;3963;42.658;23.298;2023-01-19T10:57:20;17.57;;;3.40;;
7835;SDS011;3963;42.658;23.298;2023-01-19T10:59:54;20.00;;;3.60;;
7835;SDS011;3963;42.658;23.298;2023-01-19T11:02:22;17.10;;;3.13;;
7835;SDS011;3963;42.658;23.298;2023-01-19T11:04:51;20.43;;;3.77;;
7835;SDS011;3963;42.658;23.298;2023-01-19T11:07:20;46.03;;;21.23;;
7835;SDS011;3963;42.658;23.298;2023-01-19T11:09:49;14.20;;;4.47;;
7835;SDS011;3963;42.658;23.298;2023-01-19T11:12:38;20.97;;;2.83;;
7835;SDS011;3963;42.658;23.298;2023-01-19T11:15:12;18.37;;;3.37;;
7835;SDS011;3963;42.658;23.298;2023-01-19T11:17:40;11.67;;;2.97;;
7835;SDS011;3963;42.658;23.298;2023-01-19T11:20:17;13.67;;;3.13;;
7835;SDS011;3963;42.658;23.298;2023-01-19T11:22:46;14.73;;;2.93;;
7835;SDS011;3963;42.658;23.298;2023-01-19T11:25:19;19.73;;;3.87;;
7835;SDS011;3963;42.658;23.298;2023-01-19T11:27:51;14.67;;;4.00;;
7835;SDS011;3963;42.658;23.298;2023-01-19T11:30:19;7.63;;;2.60;;
7835;SDS011;3963;42.658;23.298;2023-01-19T11:32:49;15.97;;;3.70;;
7835;SDS011;3963;42.658;23.298;2023-01-19T11:35:35;10.80;;;3.17;;
7835;SDS011;3963;42.658;23.298;2023-01-19T11:38:04;11.57;;;2.77;;
7835;SDS011;3963;42.658;23.298;2023-01-19T11:40:44;14.03;;;3.77;;
7835;SDS011;3963;42.658;23.298;2023-01-19T11:43:16;9.87;;;2.50;;
7835;SDS011;3963;42.658;23.298;2023-01-19T11:45:46;11.70;;;2.70;;
7835;SDS011;3963;42.658;23.298;2023-01-19T11:48:14;15.30;;;3.33;;
7835;SDS011;3963;42.658;23.298;2023-01-19T11:50:52;10.57;;;2.77;;
7835;SDS011;3963;42.658;23.298;2023-01-19T11:53:20;11.27;;;2.87;;
7835;SDS011;3963;42.658;23.298;2023-01-19T11:55:52;17.60;;;3.00;;
7835;SDS011;3963;42.658;23.298;2023-01-19T11:58:22;14.67;;;2.90;;
7835;SDS011;3963;42.658;23.298;2023-01-19T12:00:52;14.77;;;3.27;;
7835;SDS011;3963;42.658;23.298;2023-01-19T12:03:24;13.93;;;2.97;;
7835;SDS011;3963;42.658;23.298;2023-01-19T12:05:56;13.77;;;2.87;;
7835;SDS011;3963;42.658;23.298;2023-01-19T12:08:27;16.10;;;3.40;;
7835;SDS011;3963;42.658;23.298;2023-01-19T12:10:56;12.77;;;3.20;;
7835;SDS011;3963;42.658;23.298;2023-01-19T12:13:25;9.20;;;2.67;;
7835;SDS011;3963;42.658;23.298;2023-01-19T12:15:56;14.90;;;2.40;;
7835;SDS011;3963;42.658;23.298;2023-01-19T12:18:27;15.97;;;3.77;;
7835;SDS011;3963;42.658;23.298;2023-01-19T12:20:58;16.53;;;2.90;;
7835;SDS011;3963;42.658;23.298;2023-01-19T12:23:30;9.60;;;2.80;;
7835;SDS011;3963;42.658;23.298;2023-01-19T12:26:20;11.53;;;2.90;;
7835;SDS011;3963;42.658;23.298;2023-01-19T12:28:53;10.67;;;2.93;;
7835;SDS011;3963;42.658;23.298;2023-01-19T12:31:24;11.20;;;2.97;;
7835;SDS011;3963;42.658;23.298;2023-01-19T12:33:51;8.77;;;2.30;;
7835;SDS011;3963;42.658;23.298;2023-01-19T12:36:33;11.07;;;2.83;;
7835;SDS011;3963;42.658;23.298;2023-01-19T12:39:02;10.53;;;3.07;;
7835;SDS011;3963;42.658;23.298;2023-01-19T12:41:31;9.63;;;2.53;;
7835;SDS011;3963;42.658;23.298;2023-01-19T12:46:54;11.80;;;2.57;;
7835;SDS011;3963;42.658;23.298;2023-01-19T12:49:28;10.47;;;2.80;;
7835;SDS011;3963;42.658;23.298;2023-01-19T12:54:55;8.67;;;2.53;;
7835;SDS011;3963;42.658;23.298;2023-01-19T12:57:29;12.43;;;2.23;;
7835;SDS011;3963;42.658;23.298;2023-01-19T12:59:59;9.53;;;2.13;;
7835;SDS011;3963;42.658;23.298;2023-01-19T13:05:20;9.00;;;2.57;;
7835;SDS011;3963;42.658;23.298;2023-01-19T13:16:56;5.63;;;2.30;;
7835;SDS011;3963;42.658;23.298;2023-01-19T13:19:44;8.00;;;2.10;;
7835;SDS011;3963;42.658;23.298;2023-01-19T13:25:31;10.47;;;2.30;;
7835;SDS011;3963;42.658;23.298;2023-01-19T13:28:01;7.23;;;2.40;;
7835;SDS011;3963;42.658;23.298;2023-01-19T13:30:33;11.93;;;2.30;;
7835;SDS011;3963;42.658;23.298;2023-01-19T13:33:03;10.47;;;2.17;;
7835;SDS011;3963;42.658;23.298;2023-01-19T13:35:36;15.37;;;4.43;;
7835;SDS011;3963;42.658;23.298;2023-01-19T13:38:02;4.90;;;1.83;;
7835;SDS011;3963;42.658;23.298;2023-01-19T13:40:32;11.40;;;1.97;;
7835;SDS011;3963;42.658;23.298;2023-01-19T13:43:05;9.87;;;2.33;;
7835;SDS011;3963;42.658;23.298;2023-01-19T13:45:39;11.30;;;2.93;;
7835;SDS011;3963;42.658;23.298;2023-01-19T13:48:12;12.30;;;3.27;;
7835;SDS011;3963;42.658;23.298;2023-01-19T13:50:54;8.83;;;2.23;;
7835;SDS011;3963;42.658;23.298;2023-01-19T13:53:23;8.87;;;1.97;;
7835;SDS011;3963;42.658;23.298;2023-01-19T13:56:04;8.60;;;2.10;;
7835;SDS011;3963;42.658;23.298;2023-01-19T13:58:34;7.47;;;2.33;;
7835;SDS011;3963;42.658;23.298;2023-01-19T14:01:01;8.53;;;2.17;;
7835;SDS011;3963;42.658;23.298;2023-01-19T14:03:28;7.07;;;2.10;;
7835;SDS011;3963;42.658;23.298;2023-01-19T14:05:56;9.17;;;2.60;;
7835;SDS011;3963;42.658;23.298;2023-01-19T14:08:23;5.10;;;1.77;;
7835;SDS011;3963;42.658;23.298;2023-01-19T14:10:58;7.33;;;2.13;;
7835;SDS011;3963;42.658;23.298;2023-01-19T14:13:27;9.10;;;2.23;;
7835;SDS011;3963;42.658;23.298;2023-01-19T14:15:56;9.30;;;2.73;;
7835;SDS011;3963;42.658;23.298;2023-01-19T14:18:26;9.03;;;2.50;;
7835;SDS011;3963;42.658;23.298;2023-01-19T14:20:57;8.20;;;3.10;;
7835;SDS011;3963;42.658;23.298;2023-01-19T14:23:36;9.93;;;2.60;;
7835;SDS011;3963;42.658;23.298;2023-01-19T14:26:05;5.77;;;2.30;;
7835;SDS011;3963;42.658;23.298;2023-01-19T14:28:53;11.00;;;2.20;;
7835;SDS011;3963;42.658;23.298;2023-01-19T14:31:20;7.47;;;2.93;;
7835;SDS011;3963;42.658;23.298;2023-01-19T14:33:49;6.77;;;2.80;;
7835;SDS011;3963;42.658;23.298;2023-01-19T14:39:12;7.73;;;2.20;;
7835;SDS011;3963;42.658;23.298;2023-01-19T14:41:42;5.83;;;2.77;;
7835;SDS011;3963;42.658;23.298;2023-01-19T14:44:14;6.40;;;1.77;;
7835;SDS011;3963;42.658;23.298;2023-01-19T14:46:45;5.53;;;2.00;;
7835;SDS011;3963;42.658;23.298;2023-01-19T14:49:16;16.77;;;9.57;;
7835;SDS011;3963;42.658;23.298;2023-01-19T14:51:47;5.80;;;1.80;;
7835;SDS011;3963;42.658;23.298;2023-01-19T14:54:15;7.17;;;2.33;;
7835;SDS011;3963;42.658;23.298;2023-01-19T14:56:44;13.10;;;2.30;;
7835;SDS011;3963;42.658;23.298;2023-01-19T14:59:11;12.17;;;4.40;;
7835;SDS011;3963;42.658;23.298;2023-01-19T15:01:38;12.07;;;3.00;;
7835;SDS011;3963;42.658;23.298;2023-01-19T15:04:05;12.10;;;2.80;;
7835;SDS011;3963;42.658;23.298;2023-01-19T15:06:32;8.00;;;2.83;;
7835;SDS011;3963;42.658;23.298;2023-01-19T15:09:05;8.53;;;2.13;;
7835;SDS011;3963;42.658;23.298;2023-01-19T15:11:32;14.53;;;2.23;;
7835;SDS011;3963;42.658;23.298;2023-01-19T15:14:00;8.07;;;2.57;;
7835;SDS011;3963;42.658;23.298;2023-01-19T15:16:27;8.57;;;2.17;;
7835;SDS011;3963;42.658;23.298;2023-01-19T15:18:56;10.60;;;2.37;;
7835;SDS011;3963;42.658;23.298;2023-01-19T15:21:23;6.97;;;1.90;;
7835;SDS011;3963;42.658;23.298;2023-01-19T15:23:50;6.53;;;2.30;;
7835;SDS011;3963;42.658;23.298;2023-01-19T15:26:22;7.40;;;2.13;;
7835;SDS011;3963;42.658;23.298;2023-01-19T15:28:51;14.13;;;6.33;;
7835;SDS011;3963;42.658;23.298;2023-01-19T15:31:19;6.60;;;2.47;;
7835;SDS011;3963;42.658;23.298;2023-01-19T15:33:47;4.60;;;1.90;;